Terminal Aerodrome Forecast
Issued by NWS Grand Junction, CO

Home | Current Version | Previous Version | Text Only | Print | Product List | Glossary On
Versions: 1 2 3 4 5 6 7 8 9 10 11 12 13 14 15 16 17 18 19 20 21 22 23 24 25 26 27 28 29 30 31 32 33 34 35 36 37 38 39 40 41 42 43 44 45 46 47 48 49
000
FTUS45 KGJT 191449 AAB
TAFGJT
TAF AMD
KGJT 191449Z 1915/2012 00000KT P6SM -SN SCT027 BKN035 OVC050
      TEMPO 1915/1917 1 1/2SM -SN BR BKN030
     FM191700 14004KT P6SM FEW030 SCT050
     FM192100 32004KT P6SM SCT250
     FM200200 05003KT P6SM OVC150=

USA.gov is the U.S. government's official web portal to all federal, state and local government web resources and services.